Terminal Aerodrome Forecast
Issued by NWS

Home | Current Version | Previous Version | Text Only | Print | Product List | Glossary On
Versions: 1 2 3 4 5 6 7 8 9 10 11 12 13 14 15 16
000
FTUS43 KDLH 240500
TAFHYR
TAF
KHYR 240528Z 2406/2506 VRB03KT P6SM BKN100
     FM241800 17007KT P6SM VCSH SCT040 OVC090
     FM250000 12008KT 5SM -RA BKN050 OVC080
     FM250400 08008KT 2SM -RA OVC035=

USA.gov is the U.S. government's official web portal to all federal, state and local government web resources and services.